Time;durP1;ratioP1;P1;durP2;ratioP2;P2;SDS_P1;SDS_P2;PMS_P1;PMS_P2;Temp;Humidity;BMP_temperature;BMP_pressure;BME280_temperature;BME280_humidity;BME280_pressure;Samples;Min_cycle;Max_cycle;Signal;HPM_P1;HPM_P2
2023/09/09 00:01:06;;;;;;;6.05;4.07;;;22.50;99.90;;;;;;5073622;28;20024;-40
2023/09/09 00:03:32;;;;;;;4.60;3.97;;;22.60;99.90;;;;;;5074751;28;20481;-40
2023/09/09 00:06:06;;;;;;;4.22;3.83;;;22.50;99.90;;;;;;5074155;28;20063;-40
2023/09/09 00:08:32;;;;;;;5.35;3.92;;;22.50;99.90;;;;;;5071614;28;20028;-40
2023/09/09 00:10:57;;;;;;;4.53;4.07;;;22.50;99.90;;;;;;5072725;28;20028;-40
2023/09/09 00:13:23;;;;;;;4.70;4.03;;;22.50;99.90;;;;;;5072592;28;20028;-40
2023/09/09 00:15:53;;;;;;;5.70;4.22;;;22.50;99.90;;;;;;5072460;28;20021;-41
2023/09/09 00:18:19;;;;;;;4.75;3.60;;;22.50;99.90;;;;;;5071266;28;20482;-41
2023/09/09 00:20:45;;;;;;;4.80;4.20;;;22.50;99.90;;;;;;5072178;28;20048;-40
2023/09/09 00:23:10;;;;;;;4.50;4.03;;;22.50;99.90;;;;;;5072320;28;20017;-39
2023/09/09 00:25:37;;;;;;;4.10;3.70;;;22.50;99.90;;;;;;5072531;28;20047;-38
2023/09/09 00:28:04;;;;;;;5.78;4.40;;;22.50;99.90;;;;;;5072364;28;20020;-39
2023/09/09 00:30:30;;;;;;;4.72;4.05;;;22.50;99.90;;;;;;5072302;28;20087;-38
2023/09/09 00:32:57;;;;;;;5.30;3.92;;;22.50;99.90;;;;;;5072535;28;20514;-39
2023/09/09 00:35:23;;;;;;;5.82;4.13;;;22.50;99.90;;;;;;5072143;28;20021;-44
2023/09/09 00:37:48;;;;;;;4.40;4.00;;;22.50;99.90;;;;;;5072002;28;20029;-41
2023/09/09 00:40:14;;;;;;;4.35;3.95;;;22.50;99.90;;;;;;5071772;28;20024;-44
2023/09/09 00:42:39;;;;;;;4.80;4.30;;;22.50;99.90;;;;;;5072025;28;20379;-41
2023/09/09 00:45:05;;;;;;;4.63;4.00;;;22.50;99.90;;;;;;5071808;28;20481;-43
2023/09/09 00:47:32;;;;;;;4.80;4.03;;;22.50;99.90;;;;;;5071961;28;20060;-44
2023/09/09 00:49:58;;;;;;;4.80;4.30;;;22.50;99.90;;;;;;5071670;28;20470;-41
2023/09/09 00:52:24;;;;;;;4.97;4.05;;;22.50;99.90;;;;;;5071680;28;20032;-42
2023/09/09 00:54:50;;;;;;;4.88;4.38;;;22.50;99.90;;;;;;5071744;28;20035;-44
2023/09/09 00:57:17;;;;;;;4.53;3.90;;;22.50;99.90;;;;;;5071387;28;20375;-37
2023/09/09 00:59:43;;;;;;;4.82;4.25;;;22.50;99.90;;;;;;5071471;28;20154;-40
2023/09/09 01:02:08;;;;;;;5.25;4.13;;;22.50;99.90;;;;;;5071632;28;20052;-38
2023/09/09 01:04:34;;;;;;;5.40;4.28;;;22.50;99.90;;;;;;5071578;28;20021;-42
2023/09/09 01:07:02;;;;;;;6.00;4.28;;;22.50;99.90;;;;;;5071516;28;20048;-41
2023/09/09 01:09:29;;;;;;;5.68;4.30;;;22.50;99.90;;;;;;5071378;28;20513;-40
2023/09/09 01:11:55;;;;;;;5.68;4.13;;;22.50;99.90;;;;;;5071550;28;20032;-40
2023/09/09 01:14:20;;;;;;;5.43;4.10;;;22.50;99.90;;;;;;5071389;28;20048;-40
2023/09/09 01:16:50;;;;;;;4.18;3.78;;;22.50;99.90;;;;;;5070217;28;20032;-42
2023/09/09 01:19:18;;;;;;;4.60;3.78;;;22.50;99.90;;;;;;5071505;28;20386;-42
2023/09/09 01:21:46;;;;;;;4.72;4.22;;;22.50;99.90;;;;;;5071308;28;20029;-42
2023/09/09 01:24:16;;;;;;;4.70;4.25;;;22.50;99.90;;;;;;5071533;28;20053;-41
2023/09/09 01:26:45;;;;;;;6.18;3.72;;;22.50;99.90;;;;;;5071591;28;20028;-40
2023/09/09 01:29:11;;;;;;;5.47;4.45;;;22.50;99.90;;;;;;5071528;28;20080;-43
2023/09/09 01:31:37;;;;;;;5.93;4.43;;;22.50;99.90;;;;;;5071360;28;20078;-41
2023/09/09 01:34:02;;;;;;;5.43;4.38;;;22.50;99.90;;;;;;5071043;28;20025;-40
2023/09/09 01:36:28;;;;;;;6.10;4.78;;;22.40;99.90;;;;;;5071327;28;20036;-40
2023/09/09 01:38:54;;;;;;;4.70;4.28;;;22.40;99.90;;;;;;5071180;28;20028;-40
2023/09/09 01:41:19;;;;;;;6.32;4.45;;;22.40;99.90;;;;;;5071164;28;20031;-42
2023/09/09 01:43:45;;;;;;;6.55;4.75;;;22.50;99.90;;;;;;5071295;28;20032;-40
2023/09/09 01:46:10;;;;;;;4.10;3.70;;;22.40;99.90;;;;;;5071158;28;20481;-40
2023/09/09 01:48:37;;;;;;;6.03;4.63;;;22.40;99.90;;;;;;5071093;28;20027;-40
2023/09/09 01:51:02;;;;;;;4.45;3.90;;;22.40;99.90;;;;;;5069740;28;20024;-40
2023/09/09 01:53:28;;;;;;;5.18;4.18;;;22.40;99.90;;;;;;5071234;28;20262;-40
2023/09/09 01:55:56;;;;;;;4.50;4.03;;;22.40;99.90;;;;;;5071044;28;20033;-40
2023/09/09 01:58:22;;;;;;;5.70;4.68;;;22.40;99.90;;;;;;5071002;28;20032;-43
2023/09/09 02:00:49;;;;;;;4.75;4.30;;;22.40;99.90;;;;;;5070832;28;20024;-41
2023/09/09 02:03:15;;;;;;;4.50;3.95;;;22.40;99.90;;;;;;5069665;28;20029;-41
2023/09/09 02:05:41;;;;;;;6.40;4.50;;;22.40;99.90;;;;;;5071060;28;20027;-42
2023/09/09 02:08:06;;;;;;;4.93;4.28;;;22.40;99.90;;;;;;5071292;28;20213;-42
2023/09/09 02:10:32;;;;;;;5.00;4.40;;;22.40;99.90;;;;;;5073916;28;20123;-43
2023/09/09 02:12:58;;;;;;;5.10;4.60;;;22.40;99.90;;;;;;5075405;28;20537;-44
2023/09/09 02:15:25;;;;;;;4.60;4.10;;;22.40;99.90;;;;;;5075242;28;20512;-41
2023/09/09 02:17:51;;;;;;;5.80;4.53;;;22.40;99.90;;;;;;5074651;28;20036;-40
2023/09/09 02:20:16;;;;;;;5.40;4.20;;;22.40;99.90;;;;;;5074659;28;20047;-40
2023/09/09 02:22:42;;;;;;;7.82;4.20;;;22.40;99.90;;;;;;5074822;28;20017;-41
2023/09/09 02:25:08;;;;;;;5.93;4.57;;;22.40;99.90;;;;;;5074561;28;20085;-38
2023/09/09 02:27:34;;;;;;;4.60;4.20;;;22.40;99.90;;;;;;5074909;28;20382;-38
2023/09/09 02:30:01;;;;;;;4.93;4.43;;;22.40;99.90;;;;;;5074453;28;20021;-38
2023/09/09 02:32:27;;;;;;;4.95;4.45;;;22.30;99.90;;;;;;5074373;28;20028;-39
2023/09/09 02:34:53;;;;;;;4.25;3.85;;;22.40;99.90;;;;;;5074376;28;20028;-40
2023/09/09 02:37:22;;;;;;;6.18;4.72;;;22.30;99.90;;;;;;5074573;28;20493;-40
2023/09/09 02:39:49;;;;;;;4.80;3.70;;;22.40;99.90;;;;;;5074173;28;20398;-41
2023/09/09 02:42:20;;;;;;;5.00;4.28;;;22.40;99.90;;;;;;5074180;28;20028;-41
2023/09/09 02:44:47;;;;;;;5.20;4.45;;;22.30;99.90;;;;;;5074216;28;20017;-42
2023/09/09 02:47:13;;;;;;;5.82;4.20;;;22.30;99.90;;;;;;5074242;28;20025;-40
2023/09/09 02:49:40;;;;;;;5.80;4.35;;;22.30;99.90;;;;;;5074192;28;20549;-41
2023/09/09 02:52:09;;;;;;;4.95;4.18;;;22.30;99.90;;;;;;5074175;28;20032;-40
2023/09/09 02:54:36;;;;;;;4.78;4.30;;;22.30;99.90;;;;;;5072815;28;20024;-41
2023/09/09 02:57:03;;;;;;;5.10;4.57;;;22.30;99.90;;;;;;5074109;28;20032;-40
2023/09/09 02:59:33;;;;;;;5.50;4.32;;;22.30;99.90;;;;;;5073803;28;20028;-40
2023/09/09 03:01:59;;;;;;;4.10;3.70;;;22.30;99.90;;;;;;5074106;28;20024;-43
2023/09/09 03:04:25;;;;;;;6.10;4.78;;;22.30;99.90;;;;;;5072631;28;20037;-40
2023/09/09 03:06:51;;;;;;;5.15;4.57;;;22.30;99.90;;;;;;5072689;28;20025;-40
2023/09/09 03:09:17;;;;;;;4.57;3.88;;;22.30;99.90;;;;;;5073679;28;20013;-40
2023/09/09 03:11:42;;;;;;;5.88;4.60;;;22.30;99.90;;;;;;5073756;28;20036;-39
2023/09/09 03:14:08;;;;;;;5.20;4.55;;;22.30;99.90;;;;;;5073524;28;20020;-41
2023/09/09 03:16:37;;;;;;;5.30;4.50;;;22.30;99.90;;;;;;5073793;28;20036;-40
2023/09/09 03:19:03;;;;;;;4.72;4.30;;;22.30;99.90;;;;;;5073414;28;20458;-41
2023/09/09 03:21:29;;;;;;;4.95;4.45;;;22.30;99.90;;;;;;5072631;28;20107;-40
2023/09/09 03:23:55;;;;;;;6.70;5.60;;;22.30;99.90;;;;;;5073493;28;20504;-41
2023/09/09 03:26:22;;;;;;;6.00;4.65;;;22.30;99.90;;;;;;5074040;28;20032;-40
2023/09/09 03:28:49;;;;;;;6.22;5.00;;;22.30;99.90;;;;;;5073877;28;20013;-39
2023/09/09 03:31:15;;;;;;;4.97;4.50;;;22.30;99.90;;;;;;5073833;28;20099;-41
2023/09/09 03:33:40;;;;;;;5.13;4.40;;;22.30;99.90;;;;;;5074184;28;20025;-40
2023/09/09 03:36:08;;;;;;;8.20;5.32;;;22.30;99.90;;;;;;5073966;28;20107;-40
2023/09/09 03:38:35;;;;;;;7.03;4.57;;;22.30;99.90;;;;;;5072506;28;20110;-40
2023/09/09 03:41:03;;;;;;;6.53;4.30;;;22.30;99.90;;;;;;5073112;28;20028;-39
2023/09/09 03:43:29;;;;;;;6.65;4.90;;;22.30;99.90;;;;;;5073238;28;20093;-38
2023/09/09 03:45:56;;;;;;;5.10;4.60;;;22.30;99.90;;;;;;5073906;28;20029;-41
2023/09/09 03:48:22;;;;;;;5.30;4.78;;;22.30;99.90;;;;;;5073230;28;20029;-41
2023/09/09 03:50:48;;;;;;;5.50;5.00;;;22.30;99.90;;;;;;5073008;28;20055;-40
2023/09/09 03:53:13;;;;;;;4.93;4.20;;;22.30;99.90;;;;;;5073057;28;20060;-40
2023/09/09 03:55:41;;;;;;;7.97;5.03;;;22.30;99.90;;;;;;5072958;28;20294;-40
2023/09/09 03:58:07;;;;;;;7.55;4.60;;;22.30;99.90;;;;;;5073815;28;20029;-40
2023/09/09 04:00:33;;;;;;;7.30;5.32;;;22.20;99.90;;;;;;5072609;28;20500;-41
2023/09/09 04:02:59;;;;;;;4.30;3.88;;;22.20;99.90;;;;;;5072938;28;20024;-40
2023/09/09 04:05:25;;;;;;;6.85;4.70;;;22.20;99.90;;;;;;5072709;28;20114;-42
2023/09/09 04:07:51;;;;;;;4.78;4.07;;;22.20;99.90;;;;;;5072748;28;20020;-40
2023/09/09 04:10:17;;;;;;;5.32;4.82;;;22.20;99.90;;;;;;5072399;28;20059;-40
2023/09/09 04:12:42;;;;;;;5.43;4.35;;;22.20;99.90;;;;;;5072641;28;20028;-42
2023/09/09 04:15:09;;;;;;;4.43;4.03;;;22.20;99.90;;;;;;5072551;28;20021;-42
2023/09/09 04:17:34;;;;;;;4.97;4.10;;;22.20;99.90;;;;;;5072592;28;20028;-44
2023/09/09 04:20:01;;;;;;;5.75;4.05;;;22.20;99.90;;;;;;5072298;28;20314;-42
2023/09/09 04:22:26;;;;;;;4.95;4.53;;;22.20;99.90;;;;;;5072922;28;20107;-41
2023/09/09 04:24:55;;;;;;;6.40;4.97;;;22.20;99.90;;;;;;5072169;28;20415;-44
2023/09/09 04:27:21;;;;;;;5.15;4.22;;;22.20;99.90;;;;;;5071142;28;20025;-46
2023/09/09 04:29:47;;;;;;;5.70;4.38;;;22.20;99.90;;;;;;5072201;28;20472;-43
2023/09/09 04:32:12;;;;;;;5.05;4.55;;;22.20;99.90;;;;;;5072161;28;20033;-43
2023/09/09 04:34:38;;;;;;;6.80;5.15;;;22.20;99.90;;;;;;5072136;28;20032;-42
2023/09/09 04:37:04;;;;;;;4.93;4.40;;;22.20;99.90;;;;;;5072171;28;20077;-42
2023/09/09 04:39:30;;;;;;;6.22;4.57;;;22.20;99.90;;;;;;5071818;28;20408;-41
2023/09/09 04:41:56;;;;;;;4.85;4.10;;;22.20;99.90;;;;;;5071963;28;20035;-41
2023/09/09 04:44:22;;;;;;;4.60;4.20;;;22.20;99.90;;;;;;5072044;28;20146;-42
2023/09/09 04:46:47;;;;;;;4.40;4.00;;;22.20;99.90;;;;;;5071966;28;20017;-40
2023/09/09 04:49:13;;;;;;;7.35;4.30;;;22.20;99.90;;;;;;5071788;28;20385;-41
2023/09/09 04:51:39;;;;;;;7.55;4.90;;;22.20;99.90;;;;;;5071855;28;20025;-41
2023/09/09 04:54:04;;;;;;;5.00;4.30;;;22.20;99.90;;;;;;5071587;28;20538;-40
2023/09/09 04:56:30;;;;;;;7.25;4.80;;;22.20;99.90;;;;;;5071810;28;20028;-44
2023/09/09 04:58:55;;;;;;;5.63;4.53;;;22.10;99.90;;;;;;5071614;28;20028;-40
2023/09/09 05:01:21;;;;;;;4.60;4.20;;;22.10;99.90;;;;;;5071543;28;20029;-40
2023/09/09 05:03:47;;;;;;;4.85;4.22;;;22.10;99.90;;;;;;5071705;28;20025;-40
2023/09/09 05:06:13;;;;;;;4.65;4.20;;;22.10;99.90;;;;;;5071623;28;20020;-39
2023/09/09 05:08:38;;;;;;;5.05;4.53;;;22.10;99.90;;;;;;5071516;28;20437;-40
2023/09/09 05:11:04;;;;;;;7.35;4.50;;;22.20;99.90;;;;;;5070350;28;20033;-41
2023/09/09 05:13:30;;;;;;;6.65;4.47;;;22.10;99.90;;;;;;5071546;28;20054;-40
2023/09/09 05:15:55;;;;;;;7.15;5.03;;;22.10;99.90;;;;;;5071476;28;20036;-44
2023/09/09 05:18:21;;;;;;;8.68;5.18;;;22.10;99.90;;;;;;5071388;28;20044;-41
2023/09/09 05:20:46;;;;;;;6.07;4.63;;;22.10;99.90;;;;;;5071254;28;20052;-42
2023/09/09 05:23:12;;;;;;;6.43;4.93;;;22.10;99.90;;;;;;5071600;28;20024;-41
2023/09/09 05:25:38;;;;;;;4.28;3.88;;;22.10;99.90;;;;;;5071426;28;20017;-40
2023/09/09 05:28:04;;;;;;;6.50;4.28;;;22.10;99.90;;;;;;5071397;28;20497;-42
2023/09/09 05:30:29;;;;;;;8.73;4.97;;;22.10;99.90;;;;;;5071189;28;20466;-37
2023/09/09 05:32:55;;;;;;;5.75;4.47;;;22.10;99.90;;;;;;5071547;28;20329;-39
2023/09/09 05:35:21;;;;;;;5.03;4.53;;;22.10;99.90;;;;;;5071320;28;20025;-37
2023/09/09 05:37:47;;;;;;;5.88;5.13;;;22.10;99.90;;;;;;5071166;28;20032;-37
2023/09/09 05:40:12;;;;;;;7.20;5.30;;;22.10;99.90;;;;;;5071030;28;20028;-41
2023/09/09 05:42:39;;;;;;;5.68;4.72;;;22.10;99.90;;;;;;5071230;28;20025;-41
2023/09/09 05:45:06;;;;;;;5.75;4.75;;;22.10;99.90;;;;;;5070606;28;20040;-41
2023/09/09 05:47:31;;;;;;;5.82;4.75;;;22.10;99.90;;;;;;5071162;28;20436;-41
2023/09/09 05:49:57;;;;;;;5.13;4.22;;;22.10;99.90;;;;;;5070957;28;20025;-41
2023/09/09 05:52:22;;;;;;;5.38;4.30;;;22.10;99.90;;;;;;5071058;28;20025;-41
2023/09/09 05:54:49;;;;;;;5.72;4.80;;;22.10;99.90;;;;;;5071056;28;20474;-42
2023/09/09 05:57:14;;;;;;;4.80;4.30;;;22.10;99.90;;;;;;5071087;28;20501;-41
2023/09/09 05:59:40;;;;;;;5.80;4.80;;;22.10;99.90;;;;;;5070939;28;20389;-42
2023/09/09 06:02:06;;;;;;;5.93;4.70;;;22.10;99.90;;;;;;5070986;28;20068;-41
2023/09/09 06:04:31;;;;;;;5.75;4.85;;;22.10;99.90;;;;;;5070888;28;20031;-41
2023/09/09 06:06:57;;;;;;;5.25;4.63;;;22.10;99.90;;;;;;5070814;28;20017;-40
2023/09/09 06:09:23;;;;;;;4.90;4.40;;;22.10;99.90;;;;;;5070812;28;20047;-43
2023/09/09 06:11:50;;;;;;;5.03;4.22;;;22.10;99.90;;;;;;5071168;28;20085;-42
2023/09/09 06:14:15;;;;;;;5.75;4.70;;;22.10;99.90;;;;;;5070829;28;20037;-41
2023/09/09 06:16:41;;;;;;;5.07;4.40;;;22.10;99.90;;;;;;5071342;28;20112;-38
2023/09/09 06:19:06;;;;;;;7.57;4.65;;;22.10;99.90;;;;;;5070594;28;20036;-39
2023/09/09 06:21:32;;;;;;;6.40;4.75;;;22.10;99.90;;;;;;5070606;28;20108;-40
2023/09/09 06:23:58;;;;;;;5.45;4.45;;;22.10;99.90;;;;;;5070966;28;20017;-41
2023/09/09 06:26:24;;;;;;;5.32;4.38;;;22.10;99.90;;;;;;5071077;28;20021;-37
2023/09/09 06:28:50;;;;;;;4.68;4.18;;;22.10;99.90;;;;;;5070601;28;20029;-41
2023/09/09 06:31:16;;;;;;;4.63;4.10;;;22.10;99.90;;;;;;5070728;28;20032;-37
2023/09/09 06:33:42;;;;;;;5.63;4.57;;;22.10;99.90;;;;;;5070768;28;20052;-38
2023/09/09 06:36:07;;;;;;;5.10;4.07;;;22.10;99.90;;;;;;5070490;28;20542;-38
2023/09/09 06:38:33;;;;;;;4.75;3.92;;;22.10;99.90;;;;;;5070717;28;20059;-39
2023/09/09 06:40:58;;;;;;;4.80;4.13;;;22.10;99.90;;;;;;5070437;28;20028;-42
2023/09/09 06:43:24;;;;;;;4.82;4.40;;;22.10;99.90;;;;;;5070726;28;20017;-37
2023/09/09 06:45:51;;;;;;;4.53;4.00;;;22.10;99.90;;;;;;5071005;28;20496;-37
2023/09/09 06:48:17;;;;;;;4.90;4.28;;;22.10;99.90;;;;;;5070737;28;20036;-38
2023/09/09 06:50:46;;;;;;;4.90;4.07;;;22.10;99.90;;;;;;5070329;28;20028;-37
2023/09/09 06:53:11;;;;;;;4.40;4.00;;;22.10;99.90;;;;;;5070554;28;20039;-38
2023/09/09 06:55:37;;;;;;;5.15;4.35;;;22.10;99.90;;;;;;5070452;28;20017;-40
2023/09/09 06:58:03;;;;;;;5.78;3.85;;;22.10;99.90;;;;;;5074123;28;20025;-39
2023/09/09 07:00:29;;;;;;;4.75;4.35;;;22.10;99.90;;;;;;5072555;28;20060;-43
2023/09/09 07:02:55;;;;;;;5.03;3.85;;;22.10;99.90;;;;;;5074058;28;20027;-43
2023/09/09 07:05:21;;;;;;;4.68;3.83;;;22.20;99.90;;;;;;5073714;28;20024;-39
2023/09/09 07:07:47;;;;;;;5.68;4.00;;;22.10;99.90;;;;;;5074172;28;20067;-39
2023/09/09 07:10:12;;;;;;;4.05;3.65;;;22.20;99.90;;;;;;5072325;28;20024;-42
2023/09/09 07:12:38;;;;;;;4.45;4.00;;;22.20;99.90;;;;;;5073819;28;20028;-42
2023/09/09 07:15:04;;;;;;;4.55;3.75;;;22.20;99.90;;;;;;5073727;28;20063;-43
2023/09/09 07:17:30;;;;;;;4.65;3.90;;;22.20;99.90;;;;;;5073760;28;20028;-40
2023/09/09 07:19:56;;;;;;;5.00;4.50;;;22.20;99.90;;;;;;5073195;28;20032;-40
2023/09/09 07:22:21;;;;;;;3.80;3.45;;;22.20;99.90;;;;;;5073618;28;20043;-40
2023/09/09 07:24:47;;;;;;;4.10;3.70;;;22.20;99.90;;;;;;5073526;28;20020;-40
2023/09/09 07:27:13;;;;;;;4.20;3.80;;;22.20;99.90;;;;;;5073573;28;20466;-40
2023/09/09 07:29:38;;;;;;;4.55;3.90;;;22.20;99.90;;;;;;5073353;28;20028;-41
2023/09/09 07:32:04;;;;;;;5.30;3.83;;;22.20;99.90;;;;;;5073529;28;20020;-40
2023/09/09 07:34:30;;;;;;;4.13;3.67;;;22.30;99.90;;;;;;5073689;28;20074;-42
2023/09/09 07:36:56;;;;;;;6.47;3.97;;;22.20;99.90;;;;;;5072052;28;20036;-40
2023/09/09 07:39:21;;;;;;;3.80;3.47;;;22.30;99.90;;;;;;5073157;28;20103;-40
2023/09/09 07:41:47;;;;;;;4.82;3.60;;;22.30;99.90;;;;;;5073236;28;20020;-43
2023/09/09 07:44:13;;;;;;;4.35;3.75;;;22.30;99.90;;;;;;5073610;28;20021;-40
2023/09/09 07:46:38;;;;;;;4.25;3.88;;;22.30;99.90;;;;;;5073250;28;20024;-42
2023/09/09 07:49:04;;;;;;;4.05;3.67;;;22.30;99.90;;;;;;5072838;28;20021;-40
2023/09/09 07:51:30;;;;;;;4.20;3.70;;;22.30;99.90;;;;;;5073319;28;20115;-42
2023/09/09 07:53:55;;;;;;;5.30;3.72;;;22.30;99.90;;;;;;5073162;28;20400;-41
2023/09/09 07:56:21;;;;;;;4.05;3.60;;;22.30;99.90;;;;;;5073157;28;20473;-42
2023/09/09 07:58:46;;;;;;;6.50;5.20;;;22.30;99.90;;;;;;5073089;28;20016;-40
2023/09/09 08:01:13;;;;;;;7.50;5.60;;;22.30;99.90;;;;;;5073083;28;20413;-44
2023/09/09 08:03:38;;;;;;;7.82;5.32;;;22.30;99.90;;;;;;5072878;28;20013;-42
2023/09/09 08:06:06;;;;;;;6.20;5.25;;;22.30;99.90;;;;;;5072720;28;20374;-40
2023/09/09 08:08:33;;;;;;;7.07;5.50;;;22.30;99.90;;;;;;5072304;28;20056;-41
2023/09/09 08:10:58;;;;;;;7.82;5.28;;;22.30;99.90;;;;;;5072581;28;20112;-40
2023/09/09 08:13:27;;;;;;;6.78;5.10;;;22.30;99.90;;;;;;5072690;28;20457;-42
2023/09/09 08:15:52;;;;;;;6.55;5.30;;;22.40;99.90;;;;;;5072567;28;20055;-41
2023/09/09 08:18:18;;;;;;;6.03;4.55;;;22.40;99.90;;;;;;5072368;28;20060;-40
2023/09/09 08:20:44;;;;;;;5.78;4.50;;;22.40;99.90;;;;;;5072289;28;20025;-42
2023/09/09 08:23:10;;;;;;;5.95;4.80;;;22.40;99.90;;;;;;5072471;28;20024;-41
2023/09/09 08:25:35;;;;;;;5.60;4.72;;;22.40;99.90;;;;;;5072375;28;20505;-40
2023/09/09 08:28:03;;;;;;;5.80;4.55;;;22.40;99.90;;;;;;5072400;28;20447;-38
2023/09/09 08:30:30;;;;;;;18.67;5.90;;;22.40;99.90;;;;;;5072562;28;20020;-40
2023/09/09 08:32:56;;;;;;;6.20;5.10;;;22.60;99.90;;;;;;5072039;28;20386;-40
2023/09/09 08:35:22;;;;;;;12.57;5.40;;;22.70;99.90;;;;;;5070794;28;20043;-40
2023/09/09 08:37:48;;;;;;;9.57;5.10;;;22.80;99.90;;;;;;5072185;28;20028;-40
2023/09/09 08:40:14;;;;;;;15.60;5.85;;;22.90;99.90;;;;;;5071912;28;20378;-40
2023/09/09 08:43:08;;;;;;;8.10;5.90;;;22.90;99.90;;;;;;5072005;28;20059;-40
2023/09/09 08:45:45;;;;;;;9.05;5.60;;;23.00;99.90;;;;;;5072121;28;20017;-40
2023/09/09 08:48:17;;;;;;;7.78;5.20;;;23.00;99.90;;;;;;5070701;28;20059;-41
2023/09/09 08:50:44;;;;;;;10.20;5.95;;;23.00;99.90;;;;;;5071959;28;20036;-40
2023/09/09 08:53:16;;;;;;;7.93;5.38;;;23.00;99.90;;;;;;5072237;28;20025;-39
2023/09/09 08:55:41;;;;;;;9.00;5.30;;;23.00;99.90;;;;;;5071622;28;20482;-41
2023/09/09 08:58:07;;;;;;;7.40;5.00;;;23.00;99.90;;;;;;5072300;28;20035;-42
2023/09/09 09:00:34;;;;;;;8.27;5.15;;;23.00;99.90;;;;;;5071740;28;20028;-40
2023/09/09 09:03:03;;;;;;;6.93;5.10;;;23.00;99.90;;;;;;5071688;28;20100;-41
2023/09/09 09:05:33;;;;;;;7.88;5.15;;;23.00;99.90;;;;;;5070327;28;20025;-40
2023/09/09 09:08:01;;;;;;;12.05;5.47;;;22.90;99.90;;;;;;5071701;28;20059;-40
2023/09/09 09:10:27;;;;;;;10.55;4.53;;;22.90;99.90;;;;;;5071340;28;20024;-40
2023/09/09 09:12:53;;;;;;;7.82;4.93;;;22.90;99.90;;;;;;5071611;28;20073;-40
2023/09/09 09:15:21;;;;;;;5.68;4.90;;;22.90;99.90;;;;;;5071745;28;20098;-40
2023/09/09 09:17:46;;;;;;;5.65;5.05;;;22.90;99.90;;;;;;5071468;28;20021;-40
2023/09/09 09:20:27;;;;;;;7.88;4.57;;;22.90;99.90;;;;;;5071071;28;20021;-44
2023/09/09 09:22:57;;;;;;;5.05;4.32;;;22.90;99.90;;;;;;5071858;28;20032;-40
2023/09/09 09:25:23;;;;;;;5.63;4.25;;;22.90;99.90;;;;;;5071403;28;20046;-42
2023/09/09 09:27:49;;;;;;;5.70;4.63;;;22.80;99.90;;;;;;5070156;28;20154;-41
2023/09/09 09:30:23;;;;;;;5.15;4.22;;;22.90;99.90;;;;;;5071187;28;20099;-41
2023/09/09 09:32:52;;;;;;;5.28;4.55;;;22.80;99.90;;;;;;5071396;28;20027;-42
2023/09/09 09:35:29;;;;;;;5.95;4.32;;;22.80;99.90;;;;;;5071165;28;20025;-40
2023/09/09 09:37:58;;;;;;;6.22;4.22;;;22.80;99.90;;;;;;5071339;28;20020;-40
2023/09/09 09:40:30;;;;;;;5.32;3.88;;;22.80;99.90;;;;;;5070987;28;20051;-40
2023/09/09 09:42:56;;;;;;;5.25;4.55;;;22.80;99.90;;;;;;5071202;28;20037;-40
2023/09/09 09:45:26;;;;;;;4.95;4.03;;;22.80;99.90;;;;;;5071144;28;20032;-42
2023/09/09 09:47:52;;;;;;;5.18;3.80;;;22.80;99.90;;;;;;5071584;28;20019;-42
2023/09/09 09:50:32;;;;;;;4.93;4.35;;;22.80;99.90;;;;;;5071007;28;20108;-43
2023/09/09 09:53:00;;;;;;;6.20;4.13;;;22.80;99.90;;;;;;5071205;28;20017;-41
2023/09/09 09:55:27;;;;;;;6.68;4.32;;;22.80;99.90;;;;;;5071052;28;20505;-42
2023/09/09 09:57:55;;;;;;;6.55;4.45;;;22.80;99.90;;;;;;5071111;28;20029;-41
2023/09/09 10:00:22;;;;;;;6.32;4.50;;;22.80;99.90;;;;;;5070747;28;20074;-40
2023/09/09 10:02:52;;;;;;;5.43;4.22;;;22.80;99.90;;;;;;5070913;28;20027;-44
2023/09/09 10:05:23;;;;;;;5.18;4.30;;;22.80;99.90;;;;;;5071021;28;20029;-42
2023/09/09 10:08:22;;;;;;;9.82;3.90;;;22.80;99.90;;;;;;5071085;28;20397;-46
2023/09/09 10:11:03;;;;;;;5.88;4.18;;;22.80;99.90;;;;;;5070699;28;20025;-42
2023/09/09 10:14:07;;;;;;;9.50;4.43;;;22.90;99.90;;;;;;5070966;28;20017;-45
2023/09/09 10:16:36;;;;;;;10.00;4.27;;;23.00;99.90;;;;;;5070664;28;20056;-43
2023/09/09 10:19:03;;;;;;;11.70;4.85;;;23.00;99.90;;;;;;5070492;28;20025;-45
2023/09/09 10:21:31;;;;;;;7.78;4.60;;;23.10;99.90;;;;;;5070812;28;20028;-44
2023/09/09 10:23:58;;;;;;;8.65;4.63;;;23.10;99.90;;;;;;5070762;28;20506;-44
2023/09/09 10:26:25;;;;;;;6.63;4.50;;;23.10;99.90;;;;;;5070935;28;20078;-43
2023/09/09 10:28:51;;;;;;;5.60;4.70;;;23.10;99.90;;;;;;5070708;28;20044;-45
2023/09/09 10:31:19;;;;;;;9.23;4.13;;;23.10;99.90;;;;;;5072056;28;20583;-42
2023/09/09 10:33:47;;;;;;;8.65;4.57;;;23.20;99.90;;;;;;5074514;28;20127;-44
2023/09/09 10:36:14;;;;;;;10.57;4.50;;;23.20;99.90;;;;;;5074622;28;20024;-43
2023/09/09 10:38:40;;;;;;;6.70;3.92;;;23.20;99.90;;;;;;5074520;28;20055;-46
2023/09/09 10:41:08;;;;;;;8.27;4.28;;;23.20;99.90;;;;;;5074244;28;20017;-42
2023/09/09 10:43:33;;;;;;;6.63;4.45;;;23.20;99.90;;;;;;5074349;28;20025;-43
2023/09/09 10:45:59;;;;;;;6.80;4.15;;;23.20;99.90;;;;;;5074255;28;20028;-42
2023/09/09 10:48:25;;;;;;;9.70;3.83;;;23.20;99.90;;;;;;5074245;28;20027;-43
2023/09/09 10:50:52;;;;;;;6.50;4.10;;;23.20;99.90;;;;;;5074101;28;20070;-43
2023/09/09 10:53:22;;;;;;;9.35;3.97;;;23.20;99.90;;;;;;5074184;28;20028;-44
2023/09/09 10:55:55;;;;;;;5.50;3.60;;;23.30;99.90;;;;;;5074070;28;20031;-43
2023/09/09 10:58:33;;;;;;;8.15;4.40;;;23.20;99.90;;;;;;5074063;28;20444;-42
2023/09/09 11:00:59;;;;;;;7.68;4.22;;;23.20;99.90;;;;;;5073764;28;20031;-45
2023/09/09 11:03:40;;;;;;;5.45;3.95;;;23.30;99.90;;;;;;5074443;28;20024;-43
2023/09/09 11:06:18;;;;;;;5.05;3.85;;;23.30;99.90;;;;;;5073999;28;20517;-41
2023/09/09 11:08:46;;;;;;;7.00;4.28;;;23.30;99.90;;;;;;5073899;28;20111;-42
2023/09/09 11:11:12;;;;;;;7.50;4.10;;;23.30;99.90;;;;;;5073678;28;20428;-46
2023/09/09 11:13:54;;;;;;;8.27;4.00;;;23.30;99.90;;;;;;5073843;28;20036;-43
2023/09/09 11:16:31;;;;;;;7.97;4.03;;;23.30;99.90;;;;;;5073812;28;20095;-42
2023/09/09 11:18:59;;;;;;;5.75;3.97;;;23.30;99.90;;;;;;5073515;28;20048;-42
2023/09/09 11:21:26;;;;;;;7.07;3.78;;;23.30;99.90;;;;;;5074032;28;20029;-43
2023/09/09 11:23:52;;;;;;;5.57;3.92;;;23.30;99.90;;;;;;5073879;28;20441;-45
2023/09/09 11:26:19;;;;;;;5.90;3.75;;;23.30;99.90;;;;;;5073974;28;20070;-45
2023/09/09 11:28:46;;;;;;;5.78;3.95;;;23.30;99.90;;;;;;5073172;28;20085;-43
2023/09/09 11:31:14;;;;;;;8.00;3.92;;;23.30;99.90;;;;;;5074183;28;20029;-47
2023/09/09 11:33:39;;;;;;;4.82;3.40;;;23.30;99.90;;;;;;5076379;28;20422;-49
2023/09/09 11:36:05;;;;;;;4.93;3.40;;;23.30;99.90;;;;;;5074181;28;20052;-42
2023/09/09 11:38:33;;;;;;;4.85;3.80;;;23.30;99.90;;;;;;5073078;28;20040;-44
2023/09/09 11:41:01;;;;;;;5.30;3.38;;;23.30;99.90;;;;;;5072913;28;20027;-46
2023/09/09 11:43:29;;;;;;;4.57;3.45;;;23.30;99.90;;;;;;5071405;28;20051;-42
2023/09/09 11:45:56;;;;;;;6.30;4.00;;;23.30;99.90;;;;;;5073179;28;20028;-41
2023/09/09 11:48:23;;;;;;;8.07;3.63;;;23.30;99.90;;;;;;5074002;28;20058;-41
2023/09/09 11:50:55;;;;;;;4.22;3.30;;;23.30;99.90;;;;;;5073699;28;20393;-41
2023/09/09 11:53:22;;;;;;;5.07;3.53;;;23.30;99.90;;;;;;5072859;28;20040;-42
2023/09/09 11:55:54;;;;;;;4.47;3.45;;;23.30;99.90;;;;;;5073145;28;20100;-42
2023/09/09 11:58:20;;;;;;;6.07;3.47;;;23.40;99.90;;;;;;5072982;28;20033;-41
2023/09/09 12:00:46;;;;;;;7.53;3.55;;;23.40;99.90;;;;;;5072778;28;20509;-42
2023/09/09 12:03:21;;;;;;;8.52;3.67;;;23.40;99.90;;;;;;5072871;28;20054;-44
2023/09/09 12:05:50;;;;;;;6.28;3.58;;;23.40;99.90;;;;;;5072847;28;20023;-42
2023/09/09 12:08:16;;;;;;;8.57;4.18;;;23.40;99.90;;;;;;5072797;28;20032;-42
2023/09/09 12:10:45;;;;;;;4.70;3.13;;;23.40;99.90;;;;;;5072850;28;20021;-44
2023/09/09 12:13:11;;;;;;;4.60;3.35;;;23.40;99.90;;;;;;5072661;28;20048;-42
2023/09/09 12:15:37;;;;;;;4.80;3.42;;;23.40;99.90;;;;;;5072504;28;20146;-42
2023/09/09 12:18:13;;;;;;;6.72;3.50;;;23.40;99.90;;;;;;5072475;28;20454;-43
2023/09/09 12:21:03;;;;;;;5.70;3.88;;;23.40;99.90;;;;;;5072303;28;20040;-42
2023/09/09 12:23:31;;;;;;;4.75;3.47;;;23.40;99.90;;;;;;5071235;28;20361;-42
2023/09/09 12:26:05;;;;;;;3.83;3.00;;;23.40;99.90;;;;;;5072339;28;20104;-42
2023/09/09 12:28:31;;;;;;;6.45;3.47;;;23.40;99.90;;;;;;5072447;28;20393;-42
2023/09/09 12:30:58;;;;;;;5.20;3.05;;;23.40;99.90;;;;;;5072113;28;20021;-41
2023/09/09 12:33:24;;;;;;;4.60;3.45;;;23.40;99.90;;;;;;5072284;28;20033;-42
2023/09/09 12:35:51;;;;;;;5.03;3.40;;;23.40;99.90;;;;;;5072196;28;20059;-42
2023/09/09 12:38:18;;;;;;;5.35;3.70;;;23.40;99.90;;;;;;5072199;28;20031;-44
2023/09/09 12:40:51;;;;;;;6.32;3.30;;;23.30;99.90;;;;;;5071724;28;20103;-42
2023/09/09 12:43:25;;;;;;;5.22;3.35;;;23.30;99.90;;;;;;5072103;28;20021;-42
2023/09/09 12:45:56;;;;;;;5.22;3.42;;;23.30;99.90;;;;;;5072089;28;20040;-42